sensor_id;sensor_type;location;lat;lon;timestamp;pressure;altitude;pressure_sealevel;temperature;humidity
46111;BME280;31849;55.992;37.252;2022-12-18T00:03:17;98679.59;;;-2.83;61.70
46111;BME280;31849;55.992;37.252;2022-12-18T00:08:21;98670.66;;;-2.95;62.09
46111;BME280;31849;55.992;37.252;2022-12-18T00:13:24;98669.19;;;-2.89;61.74
46111;BME280;31849;55.992;37.252;2022-12-18T00:18:30;98656.78;;;-2.81;61.65
46111;BME280;31849;55.992;37.252;2022-12-18T00:23:34;98643.03;;;-2.86;61.76
46111;BME280;31849;55.992;37.252;2022-12-18T00:28:39;98641.09;;;-2.92;61.90
46111;BME280;31849;55.992;37.252;2022-12-18T00:33:44;98633.41;;;-2.93;61.74
46111;BME280;31849;55.992;37.252;2022-12-18T00:38:50;98627.53;;;-2.92;61.86
46111;BME280;31849;55.992;37.252;2022-12-18T00:43:54;98625.84;;;-2.92;61.74
46111;BME280;31849;55.992;37.252;2022-12-18T00:48:59;98619.13;;;-2.90;62.07
46111;BME280;31849;55.992;37.252;2022-12-18T00:54:03;98608.38;;;-3.05;62.16
46111;BME280;31849;55.992;37.252;2022-12-18T00:59:06;98609.34;;;-3.02;61.86
46111;BME280;31849;55.992;37.252;2022-12-18T01:04:11;98612.00;;;-2.98;62.43
46111;BME280;31849;55.992;37.252;2022-12-18T01:09:15;98606.13;;;-2.97;62.28
46111;BME280;31849;55.992;37.252;2022-12-18T01:14:19;98605.78;;;-3.07;61.81
46111;BME280;31849;55.992;37.252;2022-12-18T01:19:24;98588.16;;;-3.02;61.51
46111;BME280;31849;55.992;37.252;2022-12-18T01:24:27;98578.00;;;-3.25;61.99
46111;BME280;31849;55.992;37.252;2022-12-18T01:29:31;98582.06;;;-3.28;62.25
46111;BME280;31849;55.992;37.252;2022-12-18T01:34:36;98583.66;;;-3.32;62.35
46111;BME280;31849;55.992;37.252;2022-12-18T01:39:40;98578.38;;;-3.37;62.09
46111;BME280;31849;55.992;37.252;2022-12-18T01:45:00;98574.63;;;-3.24;62.26
46111;BME280;31849;55.992;37.252;2022-12-18T01:50:11;98564.16;;;-3.31;62.74
46111;BME280;31849;55.992;37.252;2022-12-18T01:55:18;98560.59;;;-3.37;62.54
46111;BME280;31849;55.992;37.252;2022-12-18T02:00:22;98572.00;;;-3.48;62.69
46111;BME280;31849;55.992;37.252;2022-12-18T02:05:36;98552.69;;;-3.44;62.43
46111;BME280;31849;55.992;37.252;2022-12-18T02:10:47;98578.16;;;-3.43;62.20
46111;BME280;31849;55.992;37.252;2022-12-18T02:15:59;98579.94;;;-3.40;62.85
46111;BME280;31849;55.992;37.252;2022-12-18T02:21:11;98591.84;;;-3.39;62.54
46111;BME280;31849;55.992;37.252;2022-12-18T02:26:20;98563.66;;;-3.45;62.21
46111;BME280;31849;55.992;37.252;2022-12-18T02:31:30;98567.19;;;-3.19;62.11
46111;BME280;31849;55.992;37.252;2022-12-18T02:36:36;98578.97;;;-3.21;62.14
46111;BME280;31849;55.992;37.252;2022-12-18T02:41:43;98573.25;;;-3.38;61.93
46111;BME280;31849;55.992;37.252;2022-12-18T02:46:50;98576.47;;;-3.42;61.94
46111;BME280;31849;55.992;37.252;2022-12-18T02:51:58;98583.81;;;-3.50;61.57
46111;BME280;31849;55.992;37.252;2022-12-18T02:57:15;98584.28;;;-3.38;62.07
46111;BME280;31849;55.992;37.252;2022-12-18T03:02:21;98574.03;;;-3.39;61.46
46111;BME280;31849;55.992;37.252;2022-12-18T03:07:35;98580.66;;;-3.44;61.47
46111;BME280;31849;55.992;37.252;2022-12-18T03:12:44;98572.88;;;-3.47;61.86
46111;BME280;31849;55.992;37.252;2022-12-18T03:17:54;98576.94;;;-3.30;61.39
46111;BME280;31849;55.992;37.252;2022-12-18T03:23:02;98591.66;;;-3.44;61.96
46111;BME280;31849;55.992;37.252;2022-12-18T03:28:12;98550.72;;;-3.51;61.94
46111;BME280;31849;55.992;37.252;2022-12-18T03:33:19;98571.44;;;-3.63;62.40
46111;BME280;31849;55.992;37.252;2022-12-18T03:38:24;98556.06;;;-3.66;62.28
46111;BME280;31849;55.992;37.252;2022-12-18T03:43:36;98581.19;;;-3.51;62.04
46111;BME280;31849;55.992;37.252;2022-12-18T03:48:45;98590.88;;;-3.43;62.12
46111;BME280;31849;55.992;37.252;2022-12-18T03:53:54;98590.31;;;-3.57;62.03
46111;BME280;31849;55.992;37.252;2022-12-18T03:59:01;98591.50;;;-3.69;62.10
46111;BME280;31849;55.992;37.252;2022-12-18T04:04:06;98557.19;;;-3.81;62.22
46111;BME280;31849;55.992;37.252;2022-12-18T04:09:12;98584.94;;;-3.85;62.12
46111;BME280;31849;55.992;37.252;2022-12-18T04:14:17;98594.50;;;-3.99;62.60
46111;BME280;31849;55.992;37.252;2022-12-18T04:19:20;98594.91;;;-3.90;63.06
46111;BME280;31849;55.992;37.252;2022-12-18T04:24:24;98614.88;;;-3.78;62.76
46111;BME280;31849;55.992;37.252;2022-12-18T04:29:29;98619.88;;;-3.80;62.67
46111;BME280;31849;55.992;37.252;2022-12-18T04:34:32;98623.22;;;-3.81;62.29
46111;BME280;31849;55.992;37.252;2022-12-18T04:39:36;98633.63;;;-3.75;61.60
46111;BME280;31849;55.992;37.252;2022-12-18T04:44:41;98636.53;;;-3.86;61.85
46111;BME280;31849;55.992;37.252;2022-12-18T04:49:45;98651.03;;;-3.84;61.65
46111;BME280;31849;55.992;37.252;2022-12-18T04:54:48;98663.50;;;-3.90;61.80
46111;BME280;31849;55.992;37.252;2022-12-18T04:59:53;98653.16;;;-3.74;61.41
46111;BME280;31849;55.992;37.252;2022-12-18T05:04:57;98631.75;;;-4.00;61.96
46111;BME280;31849;55.992;37.252;2022-12-18T05:10:01;98657.13;;;-4.00;61.67
46111;BME280;31849;55.992;37.252;2022-12-18T05:15:07;98645.88;;;-4.07;61.78
46111;BME280;31849;55.992;37.252;2022-12-18T05:20:11;98667.56;;;-3.94;61.70
46111;BME280;31849;55.992;37.252;2022-12-18T05:25:15;98664.22;;;-3.93;62.08
46111;BME280;31849;55.992;37.252;2022-12-18T05:30:20;98677.97;;;-3.88;61.92
46111;BME280;31849;55.992;37.252;2022-12-18T05:35:24;98669.22;;;-3.94;61.42
46111;BME280;31849;55.992;37.252;2022-12-18T05:40:28;98677.19;;;-4.06;61.09
46111;BME280;31849;55.992;37.252;2022-12-18T05:45:36;98690.41;;;-3.94;61.53
46111;BME280;31849;55.992;37.252;2022-12-18T05:50:42;98695.19;;;-3.80;60.94
46111;BME280;31849;55.992;37.252;2022-12-18T05:55:47;98704.91;;;-3.91;60.64
46111;BME280;31849;55.992;37.252;2022-12-18T06:00:52;98706.59;;;-3.92;60.73
46111;BME280;31849;55.992;37.252;2022-12-18T06:05:56;98698.78;;;-3.96;59.98
46111;BME280;31849;55.992;37.252;2022-12-18T06:10:59;98721.00;;;-3.91;60.28
46111;BME280;31849;55.992;37.252;2022-12-18T06:16:05;98726.97;;;-3.90;60.35
46111;BME280;31849;55.992;37.252;2022-12-18T06:21:10;98739.16;;;-3.83;61.03
46111;BME280;31849;55.992;37.252;2022-12-18T06:26:14;98747.63;;;-3.82;61.37
46111;BME280;31849;55.992;37.252;2022-12-18T06:31:19;98753.34;;;-3.67;61.23
46111;BME280;31849;55.992;37.252;2022-12-18T06:36:23;98768.47;;;-3.70;60.87
46111;BME280;31849;55.992;37.252;2022-12-18T06:41:27;98776.69;;;-3.56;61.05
46111;BME280;31849;55.992;37.252;2022-12-18T06:46:32;98779.44;;;-3.51;60.47
46111;BME280;31849;55.992;37.252;2022-12-18T06:51:36;98785.44;;;-3.49;60.58
46111;BME280;31849;55.992;37.252;2022-12-18T06:56:39;98802.16;;;-3.55;59.93
46111;BME280;31849;55.992;37.252;2022-12-18T07:01:44;98801.47;;;-3.50;59.88
46111;BME280;31849;55.992;37.252;2022-12-18T07:06:48;98811.88;;;-3.46;59.92
46111;BME280;31849;55.992;37.252;2022-12-18T07:11:52;98821.75;;;-3.32;60.18
46111;BME280;31849;55.992;37.252;2022-12-18T07:16:58;98820.28;;;-3.47;59.76
46111;BME280;31849;55.992;37.252;2022-12-18T07:22:02;98809.72;;;-3.37;59.89
46111;BME280;31849;55.992;37.252;2022-12-18T07:27:07;98826.53;;;-3.39;59.92
46111;BME280;31849;55.992;37.252;2022-12-18T07:32:12;98840.84;;;-3.21;59.30
46111;BME280;31849;55.992;37.252;2022-12-18T07:37:16;98852.69;;;-3.22;59.18
46111;BME280;31849;55.992;37.252;2022-12-18T07:42:20;98857.38;;;-3.11;59.55
46111;BME280;31849;55.992;37.252;2022-12-18T07:47:36;98872.72;;;-2.89;59.02
46111;BME280;31849;55.992;37.252;2022-12-18T07:52:40;98869.31;;;-2.68;58.91
46111;BME280;31849;55.992;37.252;2022-12-18T07:57:44;98872.34;;;-2.56;58.66
46111;BME280;31849;55.992;37.252;2022-12-18T08:02:56;98873.84;;;-2.40;58.18
46111;BME280;31849;55.992;37.252;2022-12-18T08:08:00;98882.78;;;-2.28;57.78
46111;BME280;31849;55.992;37.252;2022-12-18T08:13:04;98880.41;;;-2.24;58.00
46111;BME280;31849;55.992;37.252;2022-12-18T08:18:09;98886.22;;;-2.49;57.87
46111;BME280;31849;55.992;37.252;2022-12-18T08:23:15;98909.34;;;-2.22;57.97
46111;BME280;31849;55.992;37.252;2022-12-18T08:28:18;98908.59;;;-2.19;57.71
46111;BME280;31849;55.992;37.252;2022-12-18T08:33:24;98910.88;;;-2.04;57.57
46111;BME280;31849;55.992;37.252;2022-12-18T08:38:28;98924.31;;;-2.08;57.54
46111;BME280;31849;55.992;37.252;2022-12-18T08:43:32;98933.75;;;-2.06;57.51
46111;BME280;31849;55.992;37.252;2022-12-18T08:48:54;98949.94;;;-2.04;57.83
46111;BME280;31849;55.992;37.252;2022-12-18T08:53:58;98937.28;;;-2.02;57.63
46111;BME280;31849;55.992;37.252;2022-12-18T08:59:02;98950.56;;;-2.09;57.44
46111;BME280;31849;55.992;37.252;2022-12-18T09:04:07;98962.22;;;-2.16;57.67
46111;BME280;31849;55.992;37.252;2022-12-18T09:09:11;98962.41;;;-2.33;58.33
46111;BME280;31849;55.992;37.252;2022-12-18T09:14:15;98979.50;;;-2.30;59.17
46111;BME280;31849;55.992;37.252;2022-12-18T09:19:19;98980.91;;;-2.16;58.77
46111;BME280;31849;55.992;37.252;2022-12-18T09:24:23;98987.81;;;-2.13;58.74
46111;BME280;31849;55.992;37.252;2022-12-18T09:29:27;99016.13;;;-1.84;58.25
46111;BME280;31849;55.992;37.252;2022-12-18T09:34:32;99019.84;;;-1.76;57.77
46111;BME280;31849;55.992;37.252;2022-12-18T09:39:36;99021.53;;;-1.98;57.90
46111;BME280;31849;55.992;37.252;2022-12-18T09:44:41;99018.25;;;-2.16;58.03
46111;BME280;31849;55.992;37.252;2022-12-18T09:49:52;99009.09;;;-2.32;58.20
46111;BME280;31849;55.992;37.252;2022-12-18T09:55:00;99031.66;;;-2.20;58.16
46111;BME280;31849;55.992;37.252;2022-12-18T10:00:15;99028.13;;;-2.24;58.18
46111;BME280;31849;55.992;37.252;2022-12-18T10:05:33;99042.84;;;-2.17;58.07
46111;BME280;31849;55.992;37.252;2022-12-18T10:10:43;99008.53;;;-2.46;58.15
46111;BME280;31849;55.992;37.252;2022-12-18T10:15:58;99056.88;;;-2.26;57.89
46111;BME280;31849;55.992;37.252;2022-12-18T10:21:10;99045.69;;;-2.30;58.03
46111;BME280;31849;55.992;37.252;2022-12-18T10:26:17;99058.44;;;-2.30;58.24
46111;BME280;31849;55.992;37.252;2022-12-18T10:31:23;99050.91;;;-2.27;57.97
46111;BME280;31849;55.992;37.252;2022-12-18T10:36:29;99078.72;;;-1.91;57.56
46111;BME280;31849;55.992;37.252;2022-12-18T10:41:33;99079.81;;;-2.05;57.89
46111;BME280;31849;55.992;37.252;2022-12-18T10:46:37;99071.47;;;-2.22;58.06
46111;BME280;31849;55.992;37.252;2022-12-18T10:51:42;99081.13;;;-2.15;57.80
46111;BME280;31849;55.992;37.252;2022-12-18T10:56:46;99102.72;;;-2.26;58.14
46111;BME280;31849;55.992;37.252;2022-12-18T11:01:52;99096.13;;;-2.02;57.67
46111;BME280;31849;55.992;37.252;2022-12-18T11:07:00;99098.78;;;-1.99;57.24
46111;BME280;31849;55.992;37.252;2022-12-18T11:12:15;99107.34;;;-1.97;57.82
46111;BME280;31849;55.992;37.252;2022-12-18T11:17:20;99110.53;;;-2.22;57.54
46111;BME280;31849;55.992;37.252;2022-12-18T11:22:30;99130.31;;;-2.16;57.83
46111;BME280;31849;55.992;37.252;2022-12-18T11:27:34;99132.41;;;-2.27;57.58
46111;BME280;31849;55.992;37.252;2022-12-18T11:32:38;99139.81;;;-2.32;57.72
46111;BME280;31849;55.992;37.252;2022-12-18T11:37:49;99140.00;;;-2.28;58.01
46111;BME280;31849;55.992;37.252;2022-12-18T11:42:57;99149.88;;;-2.35;57.75
46111;BME280;31849;55.992;37.252;2022-12-18T11:48:04;99155.81;;;-2.36;57.39
46111;BME280;31849;55.992;37.252;2022-12-18T11:53:13;99166.91;;;-2.14;57.78
46111;BME280;31849;55.992;37.252;2022-12-18T11:58:26;99172.47;;;-2.23;57.55
46111;BME280;31849;55.992;37.252;2022-12-18T12:03:53;99192.44;;;-2.32;57.77
46111;BME280;31849;55.992;37.252;2022-12-18T12:09:07;99205.91;;;-2.35;57.73
46111;BME280;31849;55.992;37.252;2022-12-18T12:14:27;99206.66;;;-2.37;58.19
46111;BME280;31849;55.992;37.252;2022-12-18T12:19:39;99209.94;;;-2.40;58.59
46111;BME280;31849;55.992;37.252;2022-12-18T12:24:59;99225.22;;;-2.40;58.47
46111;BME280;31849;55.992;37.252;2022-12-18T12:30:07;99229.72;;;-2.34;58.76
46111;BME280;31849;55.992;37.252;2022-12-18T12:35:21;99236.22;;;-2.21;58.40
46111;BME280;31849;55.992;37.252;2022-12-18T12:40:31;99252.69;;;-2.33;58.58
46111;BME280;31849;55.992;37.252;2022-12-18T12:45:59;99259.00;;;-2.24;58.58
46111;BME280;31849;55.992;37.252;2022-12-18T12:51:09;99273.59;;;-2.40;59.13
46111;BME280;31849;55.992;37.252;2022-12-18T12:56:17;99288.66;;;-2.44;59.24
46111;BME280;31849;55.992;37.252;2022-12-18T13:01:28;99297.75;;;-2.68;58.96
46111;BME280;31849;55.992;37.252;2022-12-18T13:06:42;99314.19;;;-2.61;59.08
46111;BME280;31849;55.992;37.252;2022-12-18T13:11:48;99328.78;;;-2.75;59.22
46111;BME280;31849;55.992;37.252;2022-12-18T13:17:27;99331.56;;;-2.70;59.05
46111;BME280;31849;55.992;37.252;2022-12-18T13:22:34;99344.88;;;-2.76;58.66
46111;BME280;31849;55.992;37.252;2022-12-18T13:27:59;99358.03;;;-2.85;58.54
46111;BME280;31849;55.992;37.252;2022-12-18T13:39:31;99386.28;;;-2.96;58.55
46111;BME280;31849;55.992;37.252;2022-12-18T13:44:39;99402.56;;;-3.09;58.66
46111;BME280;31849;55.992;37.252;2022-12-18T13:49:43;99408.44;;;-3.10;58.79
46111;BME280;31849;55.992;37.252;2022-12-18T13:54:50;99417.69;;;-3.12;58.71
46111;BME280;31849;55.992;37.252;2022-12-18T13:59:56;99428.56;;;-3.15;58.82
46111;BME280;31849;55.992;37.252;2022-12-18T14:05:00;99431.09;;;-3.31;58.54
46111;BME280;31849;55.992;37.252;2022-12-18T14:10:13;99450.81;;;-3.11;58.27
46111;BME280;31849;55.992;37.252;2022-12-18T14:15:41;99449.97;;;-3.28;58.41
46111;BME280;31849;55.992;37.252;2022-12-18T14:20:47;99461.38;;;-3.36;58.94
46111;BME280;31849;55.992;37.252;2022-12-18T14:25:54;99481.63;;;-3.38;58.69
46111;BME280;31849;55.992;37.252;2022-12-18T14:31:17;99484.81;;;-3.25;58.46
46111;BME280;31849;55.992;37.252;2022-12-18T14:36:22;99486.03;;;-3.35;58.78
46111;BME280;31849;55.992;37.252;2022-12-18T14:41:26;99497.06;;;-3.34;58.91
46111;BME280;31849;55.992;37.252;2022-12-18T14:46:35;99504.22;;;-3.27;58.79
46111;BME280;31849;55.992;37.252;2022-12-18T14:51:41;99507.53;;;-3.45;58.48
46111;BME280;31849;55.992;37.252;2022-12-18T14:56:53;99514.59;;;-3.39;58.85
46111;BME280;31849;55.992;37.252;2022-12-18T15:02:10;99531.28;;;-3.44;58.29
46111;BME280;31849;55.992;37.252;2022-12-18T15:07:20;99538.97;;;-3.59;57.94
46111;BME280;31849;55.992;37.252;2022-12-18T15:12:32;99545.81;;;-3.73;57.70
46111;BME280;31849;55.992;37.252;2022-12-18T15:17:37;99548.88;;;-4.09;57.45
46111;BME280;31849;55.992;37.252;2022-12-18T15:22:41;99572.63;;;-4.08;57.98
46111;BME280;31849;55.992;37.252;2022-12-18T15:27:46;99569.28;;;-4.37;57.87
46111;BME280;31849;55.992;37.252;2022-12-18T15:33:16;99586.41;;;-4.48;57.79
46111;BME280;31849;55.992;37.252;2022-12-18T15:38:20;99581.56;;;-4.86;57.72
46111;BME280;31849;55.992;37.252;2022-12-18T15:43:25;99595.78;;;-5.17;57.32
46111;BME280;31849;55.992;37.252;2022-12-18T15:48:41;99605.16;;;-5.29;57.76
46111;BME280;31849;55.992;37.252;2022-12-18T15:53:46;99603.59;;;-5.40;57.85
46111;BME280;31849;55.992;37.252;2022-12-18T15:58:50;99616.16;;;-5.55;57.82
46111;BME280;31849;55.992;37.252;2022-12-18T16:03:55;99624.75;;;-5.67;57.56
46111;BME280;31849;55.992;37.252;2022-12-18T16:08:59;99618.09;;;-5.91;57.42
46111;BME280;31849;55.992;37.252;2022-12-18T16:14:04;99627.91;;;-6.09;58.03
46111;BME280;31849;55.992;37.252;2022-12-18T16:19:09;99650.59;;;-6.11;58.22
46111;BME280;31849;55.992;37.252;2022-12-18T16:24:14;99653.28;;;-6.21;57.81
46111;BME280;31849;55.992;37.252;2022-12-18T16:29:19;99663.16;;;-6.38;58.21
46111;BME280;31849;55.992;37.252;2022-12-18T16:34:31;99664.88;;;-6.50;58.47
46111;BME280;31849;55.992;37.252;2022-12-18T16:39:37;99676.09;;;-6.58;58.24
46111;BME280;31849;55.992;37.252;2022-12-18T16:44:42;99701.28;;;-6.60;58.37
46111;BME280;31849;55.992;37.252;2022-12-18T16:49:47;99695.03;;;-6.65;58.60
46111;BME280;31849;55.992;37.252;2022-12-18T16:54:53;99702.03;;;-6.61;57.88
46111;BME280;31849;55.992;37.252;2022-12-18T16:59:57;99708.91;;;-6.72;58.46
46111;BME280;31849;55.992;37.252;2022-12-18T17:05:08;99721.88;;;-6.79;58.73
46111;BME280;31849;55.992;37.252;2022-12-18T17:10:11;99725.53;;;-6.87;58.83
46111;BME280;31849;55.992;37.252;2022-12-18T17:15:15;99740.81;;;-6.85;58.25
46111;BME280;31849;55.992;37.252;2022-12-18T17:20:22;99748.50;;;-6.96;58.49
46111;BME280;31849;55.992;37.252;2022-12-18T17:25:26;99759.03;;;-7.01;58.85
46111;BME280;31849;55.992;37.252;2022-12-18T17:30:29;99773.13;;;-6.93;58.70
46111;BME280;31849;55.992;37.252;2022-12-18T17:35:34;99780.47;;;-6.84;58.54
46111;BME280;31849;55.992;37.252;2022-12-18T17:40:38;99791.81;;;-6.91;57.88
46111;BME280;31849;55.992;37.252;2022-12-18T17:45:47;99791.03;;;-7.02;57.83
46111;BME280;31849;55.992;37.252;2022-12-18T17:50:52;99812.34;;;-7.10;57.50
46111;BME280;31849;55.992;37.252;2022-12-18T17:55:57;99796.91;;;-7.37;57.88
46111;BME280;31849;55.992;37.252;2022-12-18T18:01:03;99804.00;;;-7.55;57.74
46111;BME280;31849;55.992;37.252;2022-12-18T18:06:09;99818.34;;;-7.66;57.65
46111;BME280;31849;55.992;37.252;2022-12-18T18:11:15;99799.28;;;-7.84;57.37
46111;BME280;31849;55.992;37.252;2022-12-18T18:16:37;99828.25;;;-7.91;58.06
46111;BME280;31849;55.992;37.252;2022-12-18T18:21:44;99830.25;;;-7.97;57.81
46111;BME280;31849;55.992;37.252;2022-12-18T18:26:48;99855.38;;;-7.99;57.86
46111;BME280;31849;55.992;37.252;2022-12-18T18:31:52;99857.75;;;-7.90;57.80
46111;BME280;31849;55.992;37.252;2022-12-18T18:36:58;99866.16;;;-7.79;58.62
46111;BME280;31849;55.992;37.252;2022-12-18T18:42:02;99869.63;;;-7.67;57.65
46111;BME280;31849;55.992;37.252;2022-12-18T18:47:05;99887.53;;;-7.64;57.48
46111;BME280;31849;55.992;37.252;2022-12-18T18:52:14;99898.84;;;-7.58;57.39
46111;BME280;31849;55.992;37.252;2022-12-18T18:57:18;99911.91;;;-7.64;58.01
46111;BME280;31849;55.992;37.252;2022-12-18T19:02:26;99915.28;;;-7.64;57.81
46111;BME280;31849;55.992;37.252;2022-12-18T19:07:31;99920.47;;;-7.62;57.29
46111;BME280;31849;55.992;37.252;2022-12-18T19:12:34;99934.09;;;-7.82;57.59
46111;BME280;31849;55.992;37.252;2022-12-18T19:17:55;99933.47;;;-7.90;57.92
46111;BME280;31849;55.992;37.252;2022-12-18T19:23:00;99949.78;;;-7.97;57.71
46111;BME280;31849;55.992;37.252;2022-12-18T19:28:04;99952.94;;;-7.99;57.36
46111;BME280;31849;55.992;37.252;2022-12-18T19:33:14;99954.59;;;-8.00;57.38
46111;BME280;31849;55.992;37.252;2022-12-18T19:38:39;99975.41;;;-8.02;57.27
46111;BME280;31849;55.992;37.252;2022-12-18T19:43:47;99978.84;;;-8.12;57.36
46111;BME280;31849;55.992;37.252;2022-12-18T19:48:51;99978.63;;;-8.25;57.30
46111;BME280;31849;55.992;37.252;2022-12-18T19:53:57;99974.47;;;-8.25;57.29
46111;BME280;31849;55.992;37.252;2022-12-18T19:59:03;99979.78;;;-8.42;57.61
46111;BME280;31849;55.992;37.252;2022-12-18T20:04:07;99993.44;;;-8.51;57.00
46111;BME280;31849;55.992;37.252;2022-12-18T20:09:12;99993.97;;;-8.44;57.12
46111;BME280;31849;55.992;37.252;2022-12-18T20:14:16;100000.75;;;-8.54;57.61
46111;BME280;31849;55.992;37.252;2022-12-18T20:19:25;100004.81;;;-8.45;58.26
46111;BME280;31849;55.992;37.252;2022-12-18T20:24:32;100024.03;;;-8.36;57.85
46111;BME280;31849;55.992;37.252;2022-12-18T20:29:36;100030.16;;;-8.44;57.56
46111;BME280;31849;55.992;37.252;2022-12-18T20:34:40;100026.44;;;-8.37;57.68
46111;BME280;31849;55.992;37.252;2022-12-18T20:39:45;100024.09;;;-8.46;57.40
46111;BME280;31849;55.992;37.252;2022-12-18T20:44:49;100032.66;;;-8.44;57.27
46111;BME280;31849;55.992;37.252;2022-12-18T20:49:52;100028.72;;;-8.40;57.71
46111;BME280;31849;55.992;37.252;2022-12-18T20:54:58;100032.25;;;-8.38;57.40
46111;BME280;31849;55.992;37.252;2022-12-18T21:00:03;100031.75;;;-8.34;58.03
46111;BME280;31849;55.992;37.252;2022-12-18T21:05:07;100046.22;;;-8.21;57.95
46111;BME280;31849;55.992;37.252;2022-12-18T21:10:12;100046.22;;;-8.21;57.90
46111;BME280;31849;55.992;37.252;2022-12-18T21:15:16;100034.25;;;-8.24;57.83
46111;BME280;31849;55.992;37.252;2022-12-18T21:20:29;100043.31;;;-8.05;57.75
46111;BME280;31849;55.992;37.252;2022-12-18T21:25:34;100036.47;;;-7.96;57.57
46111;BME280;31849;55.992;37.252;2022-12-18T21:30:37;100038.25;;;-7.95;57.43
46111;BME280;31849;55.992;37.252;2022-12-18T21:35:41;100009.53;;;-8.18;57.33
46111;BME280;31849;55.992;37.252;2022-12-18T21:40:46;100061.84;;;-7.95;57.56
46111;BME280;31849;55.992;37.252;2022-12-18T21:45:50;100071.41;;;-7.80;56.84
46111;BME280;31849;55.992;37.252;2022-12-18T21:50:54;100065.72;;;-7.78;57.36
46111;BME280;31849;55.992;37.252;2022-12-18T21:55:59;100073.31;;;-7.78;57.51
46111;BME280;31849;55.992;37.252;2022-12-18T22:01:03;100068.84;;;-7.70;57.32
46111;BME280;31849;55.992;37.252;2022-12-18T22:06:07;100061.91;;;-7.72;57.10
46111;BME280;31849;55.992;37.252;2022-12-18T22:11:12;100063.28;;;-7.66;57.36
46111;BME280;31849;55.992;37.252;2022-12-18T22:16:17;100073.03;;;-7.70;57.14
46111;BME280;31849;55.992;37.252;2022-12-18T22:21:22;100077.41;;;-7.68;58.02
46111;BME280;31849;55.992;37.252;2022-12-18T22:26:34;100081.09;;;-7.64;57.26
46111;BME280;31849;55.992;37.252;2022-12-18T22:31:41;100078.56;;;-7.64;57.51
46111;BME280;31849;55.992;37.252;2022-12-18T22:36:46;100095.09;;;-7.68;57.92
46111;BME280;31849;55.992;37.252;2022-12-18T22:41:52;100092.19;;;-7.62;56.97
46111;BME280;31849;55.992;37.252;2022-12-18T22:46:56;100084.84;;;-7.59;56.72
46111;BME280;31849;55.992;37.252;2022-12-18T22:52:08;100089.69;;;-7.72;57.17
46111;BME280;31849;55.992;37.252;2022-12-18T22:57:13;100105.19;;;-7.57;56.79
46111;BME280;31849;55.992;37.252;2022-12-18T23:02:17;100108.44;;;-7.58;57.12
46111;BME280;31849;55.992;37.252;2022-12-18T23:07:21;100116.66;;;-7.51;56.81
46111;BME280;31849;55.992;37.252;2022-12-18T23:12:26;100100.84;;;-7.48;57.23
46111;BME280;31849;55.992;37.252;2022-12-18T23:17:30;100114.97;;;-7.40;57.55
46111;BME280;31849;55.992;37.252;2022-12-18T23:22:34;100112.22;;;-7.43;56.99
46111;BME280;31849;55.992;37.252;2022-12-18T23:27:38;100133.50;;;-7.29;56.94
46111;BME280;31849;55.992;37.252;2022-12-18T23:32:42;100124.31;;;-7.29;56.63
46111;BME280;31849;55.992;37.252;2022-12-18T23:37:46;100117.19;;;-7.22;57.41
46111;BME280;31849;55.992;37.252;2022-12-18T23:43:01;100121.53;;;-7.10;57.34
46111;BME280;31849;55.992;37.252;2022-12-18T23:48:04;100122.25;;;-7.22;57.33
46111;BME280;31849;55.992;37.252;2022-12-18T23:53:08;100116.69;;;-7.18;56.79
46111;BME280;31849;55.992;37.252;2022-12-18T23:58:18;100113.97;;;-7.10;57.10
